createdAt,value
2022-11-19T00:00:06.064Z,9.32
2022-11-19T00:02:32.487Z,9.82
2022-11-19T00:04:58.939Z,9.57
2022-11-19T00:07:25.387Z,10.07
2022-11-19T00:09:51.988Z,9.68
2022-11-19T00:12:36.861Z,10.68
2022-11-19T00:15:03.389Z,10.43
2022-11-19T00:17:29.910Z,11.73
2022-11-19T00:19:56.277Z,12.60
2022-11-19T00:22:22.651Z,13.75
2022-11-19T00:24:49.008Z,14.68
2022-11-19T00:27:15.449Z,13.73
2022-11-19T00:29:41.805Z,17.55
2022-11-19T00:32:08.177Z,13.63
2022-11-19T00:34:34.518Z,17.30
2022-11-19T00:37:00.902Z,15.98
2022-11-19T00:39:27.269Z,16.77
2022-11-19T00:41:53.651Z,19.77
2022-11-19T00:44:20.012Z,19.88
2022-11-19T00:46:46.420Z,20.63
2022-11-19T00:49:12.780Z,20.38
2022-11-19T00:51:39.179Z,19.77
2022-11-19T00:54:05.586Z,20.75
2022-11-19T00:56:31.982Z,21.77
2022-11-19T00:58:58.435Z,23.48
2022-11-19T01:01:25.724Z,20.73
2022-11-19T01:03:52.966Z,24.88
2022-11-19T01:06:20.712Z,22.48
2022-11-19T01:08:48.454Z,24.83
2022-11-19T01:11:18.311Z,24.65
2022-11-19T01:13:44.692Z,24.83
2022-11-19T01:16:31.866Z,26.52
2022-11-19T01:18:58.653Z,31.63
2022-11-19T01:21:28.771Z,26.77
2022-11-19T01:23:55.179Z,28.63
2022-11-19T01:26:21.668Z,26.60
2022-11-19T01:28:48.147Z,31.20
2022-11-19T01:31:19.814Z,29.50
2022-11-19T01:33:46.944Z,28.75
2022-11-19T01:36:21.481Z,26.73
2022-11-19T01:38:50.807Z,27.45
2022-11-19T01:41:30.353Z,28.23
2022-11-19T01:44:02.123Z,30.95
2022-11-19T01:46:31.029Z,33.88
2022-11-19T01:49:13.230Z,30.52
2022-11-19T01:51:49.397Z,35.92
2022-11-19T01:54:25.437Z,42.20
2022-11-19T01:56:53.814Z,34.13
2022-11-19T01:59:21.095Z,34.30
2022-11-19T02:01:47.758Z,30.38
2022-11-19T02:04:15.605Z,33.75
2022-11-19T02:06:43.250Z,33.92
2022-11-19T02:09:09.635Z,35.50
2022-11-19T02:12:09.534Z,37.58
2022-11-19T02:15:03.329Z,32.17
2022-11-19T02:17:38.645Z,39.00
2022-11-19T02:20:32.947Z,35.58
2022-11-19T02:23:28.481Z,41.30
2022-11-19T02:26:17.387Z,35.95
2022-11-19T02:28:50.210Z,37.83
2022-11-19T02:31:26.779Z,39.15
2022-11-19T02:34:00.290Z,39.80
2022-11-19T02:36:35.139Z,41.35
2022-11-19T02:39:01.413Z,38.63
2022-11-19T02:41:34.104Z,40.72
2022-11-19T02:44:45.951Z,36.53
2022-11-19T02:47:16.349Z,36.85
2022-11-19T02:49:44.922Z,41.25
2022-11-19T02:52:13.806Z,40.95
2022-11-19T02:54:40.227Z,40.25
2022-11-19T02:57:06.683Z,41.30
2022-11-19T02:59:57.350Z,38.70
2022-11-19T03:02:45.497Z,39.17
2022-11-19T03:05:16.613Z,39.85
2022-11-19T03:07:43.063Z,41.33
2022-11-19T03:10:10.451Z,41.13
2022-11-19T03:13:24.630Z,42.83
2022-11-19T03:16:10.868Z,39.95
2022-11-19T03:19:06.303Z,36.50
2022-11-19T03:21:42.711Z,41.72
2022-11-19T03:24:14.991Z,41.83
2022-11-19T03:29:14.430Z,40.88
2022-11-19T03:31:43.485Z,42.70
2022-11-19T03:34:16.896Z,46.92
2022-11-19T03:36:44.132Z,40.67
2022-11-19T03:39:14.513Z,42.65
2022-11-19T03:41:42.352Z,43.50
2022-11-19T03:44:15.270Z,43.80
2022-11-19T03:46:43.275Z,40.60
2022-11-19T03:49:10.885Z,45.80
2022-11-19T03:51:42.458Z,42.33
2022-11-19T03:54:09.188Z,43.13
2022-11-19T03:56:37.907Z,42.90
2022-11-19T03:59:04.915Z,44.13
2022-11-19T04:01:33.487Z,42.22
2022-11-19T04:04:18.489Z,42.28
2022-11-19T04:06:44.849Z,42.00
2022-11-19T04:09:11.200Z,42.78
2022-11-19T04:11:37.571Z,44.17
2022-11-19T04:14:03.957Z,42.83
2022-11-19T04:16:30.330Z,52.30
2022-11-19T04:18:56.700Z,43.60
2022-11-19T04:21:23.296Z,44.00
2022-11-19T04:23:49.646Z,44.50
2022-11-19T04:26:16.063Z,45.15
2022-11-19T04:28:42.435Z,45.60
2022-11-19T04:31:12.278Z,59.42
2022-11-19T04:33:41.327Z,45.85
2022-11-19T04:36:08.102Z,43.92
2022-11-19T04:38:34.756Z,47.28
2022-11-19T04:41:01.132Z,51.88
2022-11-19T04:43:27.505Z,44.45
2022-11-19T04:45:53.883Z,48.17
2022-11-19T04:48:20.247Z,47.42
2022-11-19T04:50:46.646Z,44.40
2022-11-19T04:53:14.132Z,45.90
2022-11-19T04:55:41.580Z,46.15
2022-11-19T04:58:07.939Z,56.75
2022-11-19T05:00:34.337Z,54.35
2022-11-19T05:03:00.730Z,52.70
2022-11-19T05:05:27.103Z,53.42
2022-11-19T05:07:53.485Z,63.28
2022-11-19T05:10:19.875Z,52.88
2022-11-19T05:12:46.303Z,53.28
2022-11-19T05:15:12.688Z,52.60
2022-11-19T05:17:39.084Z,52.58
2022-11-19T05:20:06.011Z,55.15
2022-11-19T05:22:32.423Z,51.85
2022-11-19T05:24:58.779Z,52.17
2022-11-19T05:27:25.160Z,51.10
2022-11-19T05:29:51.516Z,51.28
2022-11-19T05:32:17.942Z,50.03
2022-11-19T05:34:44.647Z,53.80
2022-11-19T05:37:11.015Z,50.20
2022-11-19T05:39:37.384Z,47.83
2022-11-19T05:42:03.803Z,45.90
2022-11-19T05:44:30.187Z,48.70
2022-11-19T05:46:57.441Z,48.95
2022-11-19T05:49:23.814Z,42.67
2022-11-19T05:51:50.206Z,46.85
2022-11-19T05:54:16.761Z,49.08
2022-11-19T05:56:43.363Z,39.90
2022-11-19T05:59:09.783Z,41.67
2022-11-19T06:01:36.212Z,46.55
2022-11-19T06:04:02.728Z,42.55
2022-11-19T06:06:29.604Z,46.15
2022-11-19T06:08:55.988Z,39.83
2022-11-19T06:11:40.845Z,43.58
2022-11-19T06:14:07.253Z,46.45
2022-11-19T06:16:33.669Z,43.33
2022-11-19T06:19:00.040Z,41.05
2022-11-19T06:21:26.391Z,41.67
2022-11-19T06:23:52.761Z,35.85
2022-11-19T06:26:26.375Z,41.67
2022-11-19T06:28:53.128Z,41.33
2022-11-19T06:31:19.996Z,43.95
2022-11-19T06:33:46.514Z,40.95
2022-11-19T06:36:13.291Z,41.53
2022-11-19T06:38:39.881Z,42.67
2022-11-19T06:41:06.446Z,42.55
2022-11-19T06:43:32.825Z,42.30
2022-11-19T06:45:59.188Z,38.65
2022-11-19T06:48:25.565Z,37.67
2022-11-19T06:50:51.938Z,35.05
2022-11-19T06:53:18.342Z,36.47
2022-11-19T06:55:44.707Z,38.65
2022-11-19T06:58:11.073Z,35.22
2022-11-19T07:00:37.438Z,38.17
2022-11-19T07:03:03.928Z,37.40
2022-11-19T07:05:30.335Z,38.47
2022-11-19T07:08:01.525Z,37.70
2022-11-19T07:10:29.373Z,37.15
2022-11-19T07:12:55.796Z,37.50
2022-11-19T07:15:22.168Z,30.08
2022-11-19T07:17:48.794Z,35.83
2022-11-19T07:20:15.199Z,35.08
2022-11-19T07:22:42.270Z,35.42
2022-11-19T07:25:12.425Z,38.97
2022-11-19T07:27:39.743Z,34.10
2022-11-19T07:30:07.370Z,34.17
2022-11-19T07:32:34.059Z,31.52
2022-11-19T07:35:00.447Z,29.75
2022-11-19T07:37:26.828Z,30.27
2022-11-19T07:39:53.218Z,28.15
2022-11-19T07:42:38.404Z,28.45
2022-11-19T07:45:05.397Z,28.88
2022-11-19T07:47:33.739Z,31.58
2022-11-19T07:50:00.144Z,28.58
2022-11-19T07:52:26.556Z,26.88
2022-11-19T07:54:52.931Z,28.13
2022-11-19T07:57:19.661Z,30.30
2022-11-19T07:59:46.027Z,28.02
2022-11-19T08:02:13.070Z,28.83
2022-11-19T08:04:39.539Z,30.95
2022-11-19T08:07:05.962Z,26.67
2022-11-19T08:09:32.511Z,24.52
2022-11-19T08:11:58.954Z,26.63
2022-11-19T08:14:25.382Z,27.30
2022-11-19T08:17:09.989Z,23.13
2022-11-19T08:19:36.462Z,26.63
2022-11-19T08:22:02.818Z,21.13
2022-11-19T08:24:29.356Z,25.27
2022-11-19T08:26:55.745Z,29.52
2022-11-19T08:29:23.648Z,23.23
2022-11-19T08:31:50.691Z,21.92
2022-11-19T08:34:18.076Z,20.05
2022-11-19T08:36:44.678Z,21.65
2022-11-19T08:39:11.327Z,22.42
2022-11-19T08:41:56.187Z,22.45
2022-11-19T08:44:22.982Z,21.15
2022-11-19T08:46:50.485Z,21.55
2022-11-19T08:49:17.114Z,22.02
2022-11-19T08:51:43.498Z,22.48
2022-11-19T08:54:09.896Z,19.92
2022-11-19T08:56:36.334Z,20.20
2022-11-19T08:59:03.401Z,24.48
2022-11-19T09:01:30.514Z,24.10
2022-11-19T09:03:56.933Z,23.88
2022-11-19T09:06:23.297Z,20.05
2022-11-19T09:08:49.712Z,19.40
2022-11-19T09:11:18.418Z,23.13
2022-11-19T09:13:44.880Z,19.05
2022-11-19T09:16:11.650Z,19.33
2022-11-19T09:18:39.185Z,18.38
2022-11-19T09:21:07.401Z,25.23
2022-11-19T09:23:33.929Z,22.77
2022-11-19T09:26:06.334Z,17.52
2022-11-19T09:28:32.892Z,23.20
2022-11-19T09:31:04.903Z,21.27
2022-11-19T09:33:32.470Z,29.25
2022-11-19T09:35:58.852Z,22.25
2022-11-19T09:38:25.261Z,20.70
2022-11-19T09:40:53.876Z,23.73
2022-11-19T09:43:45.316Z,21.77
2022-11-19T09:46:24.926Z,19.55
2022-11-19T09:48:52.618Z,19.90
2022-11-19T09:51:22.310Z,31.30
2022-11-19T09:53:52.722Z,21.65
2022-11-19T09:56:26.212Z,22.17
2022-11-19T09:58:53.654Z,19.58
2022-11-19T10:01:20.096Z,20.20
2022-11-19T10:03:48.731Z,19.15
2022-11-19T10:06:15.036Z,17.67
2022-11-19T10:08:57.988Z,16.95
2022-11-19T10:11:49.990Z,31.98
2022-11-19T10:14:57.771Z,17.63
2022-11-19T10:17:36.028Z,19.33
2022-11-19T10:20:31.875Z,24.58
2022-11-19T10:23:17.749Z,17.70
2022-11-19T10:25:49.796Z,18.30
2022-11-19T10:28:19.670Z,15.30
2022-11-19T10:30:51.643Z,18.00
2022-11-19T10:33:26.485Z,15.40
2022-11-19T10:36:00.578Z,13.50
2022-11-19T10:38:32.672Z,15.55
2022-11-19T10:41:08.923Z,17.48
2022-11-19T10:43:48.068Z,16.55
2022-11-19T10:46:17.391Z,18.25
2022-11-19T10:48:46.717Z,15.88
2022-11-19T10:51:22.575Z,18.15
2022-11-19T10:53:49.316Z,14.80
2022-11-19T10:56:19.808Z,16.92
2022-11-19T10:58:58.570Z,19.25
2022-11-19T11:01:29.716Z,18.00
2022-11-19T11:04:07.108Z,14.13
2022-11-19T11:06:52.812Z,17.73
2022-11-19T11:09:36.161Z,20.10
2022-11-19T11:12:42.185Z,18.65
2022-11-19T11:15:15.561Z,17.95
2022-11-19T11:17:42.688Z,24.30
2022-11-19T11:20:18.083Z,29.02
2022-11-19T11:22:46.682Z,19.17
2022-11-19T11:25:20.630Z,17.33
2022-11-19T11:28:13.426Z,18.02
2022-11-19T11:30:59.353Z,16.77
2022-11-19T11:33:35.872Z,16.58
2022-11-19T11:36:13.909Z,18.55
2022-11-19T11:38:43.181Z,28.60
2022-11-19T11:42:04.359Z,19.60
2022-11-19T11:44:14.464Z,14.10
2022-11-19T11:46:49.849Z,16.73
2022-11-19T11:49:37.317Z,16.35
2022-11-19T11:52:09.823Z,16.50
2022-11-19T11:54:37.495Z,15.60
2022-11-19T11:57:57.462Z,16.83
2022-11-19T12:00:38.079Z,29.73
2022-11-19T12:03:05.683Z,24.92
2022-11-19T12:06:05.722Z,29.33
2022-11-19T12:08:43.252Z,29.92
2022-11-19T12:11:54.105Z,22.30
2022-11-19T12:14:25.576Z,16.55
2022-11-19T12:17:16.945Z,17.92
2022-11-19T12:20:17.735Z,22.88
2022-11-19T12:23:02.750Z,16.67
2022-11-19T12:25:38.079Z,17.45
2022-11-19T12:28:16.479Z,18.70
2022-11-19T12:31:16.974Z,19.52
2022-11-19T12:33:55.625Z,21.40
2022-11-19T12:36:25.657Z,35.65
2022-11-19T12:39:07.202Z,19.90
2022-11-19T12:42:05.206Z,19.97
2022-11-19T12:44:49.817Z,23.08
2022-11-19T12:47:44.556Z,18.38
2022-11-19T12:50:23.567Z,18.98
2022-11-19T12:52:54.031Z,18.50
2022-11-19T12:55:47.473Z,16.17
2022-11-19T12:58:44.583Z,19.10
2022-11-19T13:01:20.023Z,16.58
2022-11-19T13:04:19.856Z,15.73
2022-11-19T13:06:57.068Z,43.45
2022-11-19T13:09:39.728Z,23.65
2022-11-19T13:12:09.213Z,23.30
2022-11-19T13:14:41.459Z,17.67
2022-11-19T13:19:42.231Z,17.25
2022-11-19T13:22:20.822Z,19.75
2022-11-19T13:24:54.743Z,25.67
2022-11-19T13:27:23.786Z,20.02
2022-11-19T13:29:54.282Z,17.55
2022-11-19T13:32:26.334Z,16.23
2022-11-19T13:35:13.952Z,17.88
2022-11-19T13:38:04.048Z,19.40
2022-11-19T13:41:08.994Z,17.33
2022-11-19T13:43:54.130Z,17.13
2022-11-19T13:46:27.147Z,17.33
2022-11-19T13:48:59.088Z,17.92
2022-11-19T13:51:39.159Z,16.95
2022-11-19T13:54:07.712Z,15.98
2022-11-19T13:56:48.361Z,16.95
2022-11-19T13:59:44.351Z,15.77
2022-11-19T14:02:27.099Z,15.73
2022-11-19T14:05:08.665Z,15.18
2022-11-19T14:08:02.883Z,15.63
2022-11-19T14:10:37.588Z,14.85
2022-11-19T14:13:03.939Z,16.52
2022-11-19T14:16:16.362Z,13.77
2022-11-19T14:19:07.026Z,14.73
2022-11-19T14:21:52.131Z,13.32
2022-11-19T14:25:05.613Z,14.10
2022-11-19T14:27:32.824Z,13.30
2022-11-19T14:30:04.500Z,13.38
2022-11-19T14:32:32.184Z,16.25
2022-11-19T14:35:01.490Z,13.73
2022-11-19T14:37:37.009Z,13.20
2022-11-19T14:40:12.523Z,15.10
2022-11-19T14:43:19.499Z,17.15
2022-11-19T14:46:00.779Z,13.07
2022-11-19T14:48:34.234Z,14.48
2022-11-19T14:51:06.849Z,17.27
2022-11-19T14:53:38.665Z,15.15
2022-11-19T14:56:12.455Z,15.05
2022-11-19T14:58:38.838Z,17.55
2022-11-19T15:01:06.971Z,17.98
2022-11-19T15:03:33.541Z,17.58
2022-11-19T15:06:05.527Z,15.32
2022-11-19T15:08:53.932Z,17.63
2022-11-19T15:11:20.546Z,17.48
2022-11-19T15:13:48.748Z,17.60
2022-11-19T15:16:19.027Z,17.73
2022-11-19T15:18:45.327Z,20.70
2022-11-19T15:21:33.527Z,21.65
2022-11-19T15:24:13.811Z,18.25
2022-11-19T15:26:58.599Z,19.73
2022-11-19T15:30:02.239Z,20.90
2022-11-19T15:33:02.952Z,16.85
2022-11-19T15:35:38.479Z,17.00
2022-11-19T15:38:19.703Z,16.17
2022-11-19T15:40:47.778Z,15.45
2022-11-19T15:43:22.815Z,15.07
2022-11-19T15:45:55.234Z,15.65
2022-11-19T15:48:40.481Z,15.27
2022-11-19T15:51:07.789Z,16.30
2022-11-19T15:53:34.237Z,17.17
2022-11-19T15:56:10.382Z,16.60
2022-11-19T15:58:39.526Z,18.67
2022-11-19T16:01:08.404Z,18.15
2022-11-19T16:03:37.839Z,19.17
2022-11-19T16:06:09.849Z,17.65
2022-11-19T16:08:36.554Z,19.27
2022-11-19T16:11:22.047Z,17.17
2022-11-19T16:14:11.293Z,22.48
2022-11-19T16:16:57.059Z,21.98
2022-11-19T16:19:23.867Z,21.42
2022-11-19T16:22:02.399Z,18.33
2022-11-19T16:24:48.519Z,15.68
2022-11-19T16:27:23.594Z,18.50
2022-11-19T16:29:50.763Z,19.23
2022-11-19T16:32:18.914Z,18.92
2022-11-19T16:34:45.718Z,22.42
2022-11-19T16:37:13.550Z,18.10
2022-11-19T16:39:40.359Z,19.70
2022-11-19T16:42:17.746Z,17.10
2022-11-19T16:44:53.576Z,18.35
2022-11-19T16:47:31.611Z,16.92
2022-11-19T16:50:21.412Z,19.10
2022-11-19T16:52:47.819Z,24.60
2022-11-19T16:55:23.311Z,19.73
2022-11-19T16:57:54.461Z,19.40
2022-11-19T17:00:23.147Z,23.05
2022-11-19T17:02:50.732Z,17.10
2022-11-19T17:05:19.259Z,19.92
2022-11-19T17:07:48.656Z,20.63
2022-11-19T17:10:26.046Z,22.70
2022-11-19T17:13:27.207Z,20.98
2022-11-19T17:15:53.650Z,24.85
2022-11-19T17:18:30.231Z,23.20
2022-11-19T17:21:08.294Z,25.98
2022-11-19T17:23:46.136Z,25.10
2022-11-19T17:26:17.001Z,20.40
2022-11-19T17:28:46.443Z,22.02
2022-11-19T17:31:15.876Z,25.27
2022-11-19T17:34:12.250Z,23.30
2022-11-19T17:36:39.794Z,30.65
2022-11-19T17:39:13.118Z,35.00
2022-11-19T17:41:58.075Z,30.63
2022-11-19T17:44:34.371Z,27.10
2022-11-19T17:47:21.165Z,31.52
2022-11-19T17:49:49.112Z,26.95
2022-11-19T17:52:26.638Z,27.85
2022-11-19T17:54:55.521Z,26.23
2022-11-19T17:57:21.958Z,26.40
2022-11-19T17:59:48.339Z,21.92
2022-11-19T18:02:16.765Z,25.05
2022-11-19T18:04:44.256Z,24.98
2022-11-19T18:07:11.683Z,40.58
2022-11-19T18:09:38.997Z,32.13
2022-11-19T18:12:07.221Z,26.67
2022-11-19T18:14:33.692Z,34.00
2022-11-19T18:17:00.195Z,24.90
2022-11-19T18:19:28.531Z,24.05
2022-11-19T18:21:55.650Z,19.67
2022-11-19T18:24:22.606Z,19.38
2022-11-19T18:26:49.275Z,17.75
2022-11-19T18:29:15.690Z,18.23
2022-11-19T18:31:44.590Z,19.45
2022-11-19T18:34:19.617Z,22.13
2022-11-19T18:36:46.767Z,19.75
2022-11-19T18:39:13.542Z,20.70
2022-11-19T18:41:40.495Z,17.30
2022-11-19T18:44:26.009Z,18.08
2022-11-19T18:46:52.440Z,19.63
2022-11-19T18:49:19.311Z,18.92
2022-11-19T18:51:47.448Z,23.60
2022-11-19T18:54:14.254Z,19.33
2022-11-19T18:56:40.694Z,23.42
2022-11-19T18:59:07.248Z,21.52
2022-11-19T19:01:33.681Z,22.02
2022-11-19T19:04:00.220Z,35.65
2022-11-19T19:06:28.486Z,38.47
2022-11-19T19:08:54.866Z,31.77
2022-11-19T19:11:40.031Z,38.45
2022-11-19T19:14:06.503Z,36.42
2022-11-19T19:16:34.650Z,31.00
2022-11-19T19:19:01.965Z,32.33
2022-11-19T19:21:28.677Z,28.52
2022-11-19T19:23:55.192Z,30.92
2022-11-19T19:26:22.012Z,28.50
2022-11-19T19:28:50.433Z,40.38
2022-11-19T19:31:18.077Z,38.05
2022-11-19T19:33:46.142Z,49.53
2022-11-19T19:36:12.755Z,72.25
2022-11-19T19:38:40.704Z,70.00
2022-11-19T19:41:09.344Z,53.47
2022-11-19T19:43:35.777Z,55.00
2022-11-19T19:46:04.391Z,31.55
2022-11-19T19:48:30.796Z,32.85
2022-11-19T19:50:57.411Z,34.40
2022-11-19T19:53:23.852Z,33.53
2022-11-19T19:55:50.201Z,34.63
2022-11-19T19:58:16.620Z,40.42
2022-11-19T20:00:43.006Z,43.63
2022-11-19T20:03:09.395Z,37.92
2022-11-19T20:05:35.816Z,38.78
2022-11-19T20:08:02.259Z,39.60
2022-11-19T20:10:28.653Z,33.45
2022-11-19T20:13:13.591Z,38.80
2022-11-19T20:15:41.094Z,37.55
2022-11-19T20:18:07.614Z,31.60
2022-11-19T20:20:33.979Z,27.70
2022-11-19T20:23:00.350Z,25.55
2022-11-19T20:25:26.837Z,27.52
2022-11-19T20:27:53.247Z,29.27
2022-11-19T20:30:20.218Z,32.38
2022-11-19T20:32:48.535Z,31.48
2022-11-19T20:35:15.180Z,31.98
2022-11-19T20:37:41.650Z,27.27
2022-11-19T20:40:08.739Z,29.52
2022-11-19T20:42:53.486Z,29.35
2022-11-19T20:45:21.391Z,31.25
2022-11-19T20:47:47.779Z,26.05
2022-11-19T20:50:14.193Z,27.08
2022-11-19T20:52:40.549Z,29.52
2022-11-19T20:55:07.309Z,32.40
2022-11-19T20:57:33.674Z,31.58
2022-11-19T21:00:00.394Z,33.50
2022-11-19T21:02:26.845Z,33.70
2022-11-19T21:04:53.247Z,28.52
2022-11-19T21:07:19.679Z,37.03
2022-11-19T21:09:46.825Z,33.50
2022-11-19T21:12:13.197Z,31.55
2022-11-19T21:14:39.585Z,30.95
2022-11-19T21:17:05.970Z,29.98
2022-11-19T21:19:32.461Z,31.17
2022-11-19T21:21:58.831Z,27.98
2022-11-19T21:24:25.277Z,31.20
2022-11-19T21:26:51.964Z,30.02
2022-11-19T21:29:18.499Z,31.15
2022-11-19T21:31:47.200Z,32.17
2022-11-19T21:34:15.402Z,30.00
2022-11-19T21:36:42.696Z,30.15
2022-11-19T21:39:09.781Z,26.35
2022-11-19T21:41:36.257Z,28.25
2022-11-19T21:44:03.600Z,28.05
2022-11-19T21:46:30.302Z,26.38
2022-11-19T21:48:56.779Z,28.13
2022-11-19T21:51:24.813Z,29.70
2022-11-19T21:53:55.843Z,30.17
2022-11-19T21:56:22.609Z,32.35
2022-11-19T21:58:48.971Z,34.10
2022-11-19T22:01:15.366Z,30.20
2022-11-19T22:03:41.814Z,32.67
2022-11-19T22:06:09.903Z,35.25
2022-11-19T22:08:38.132Z,35.55
2022-11-19T22:11:25.302Z,38.80
2022-11-19T22:13:52.194Z,37.33
2022-11-19T22:16:19.155Z,34.13
2022-11-19T22:18:45.562Z,36.50
2022-11-19T22:21:12.223Z,38.47
2022-11-19T22:23:38.587Z,32.65
2022-11-19T22:26:09.944Z,34.85
2022-11-19T22:28:36.443Z,27.92
2022-11-19T22:31:03.274Z,33.10
2022-11-19T22:33:34.216Z,29.38
2022-11-19T22:36:06.481Z,33.75
2022-11-19T22:38:36.354Z,32.60
2022-11-19T22:41:05.092Z,34.13
2022-11-19T22:43:33.175Z,36.65
2022-11-19T22:45:59.617Z,37.85
2022-11-19T22:48:29.925Z,35.53
2022-11-19T22:50:56.312Z,40.58
2022-11-19T22:53:23.391Z,40.72
2022-11-19T22:55:49.885Z,37.40
2022-11-19T22:58:16.328Z,40.53
2022-11-19T23:00:43.610Z,42.92
2022-11-19T23:03:10.548Z,39.47
2022-11-19T23:05:37.429Z,39.35
2022-11-19T23:08:05.671Z,40.13
2022-11-19T23:10:33.504Z,44.28
2022-11-19T23:13:19.083Z,47.88
2022-11-19T23:16:15.671Z,47.50
2022-11-19T23:18:46.771Z,50.50
2022-11-19T23:21:18.840Z,42.63
2022-11-19T23:23:45.609Z,58.97
2022-11-19T23:26:14.164Z,57.15
2022-11-19T23:28:41.244Z,61.75
2022-11-19T23:31:29.405Z,48.47
2022-11-19T23:33:59.269Z,47.58
2022-11-19T23:36:31.014Z,48.75
2022-11-19T23:38:57.699Z,48.97
2022-11-19T23:41:24.236Z,44.47
2022-11-19T23:43:53.257Z,44.58
2022-11-19T23:46:21.849Z,41.90
2022-11-19T23:48:49.448Z,43.05
2022-11-19T23:51:37.657Z,46.67
2022-11-19T23:54:04.793Z,39.65
2022-11-19T23:56:32.981Z,42.10
2022-11-19T23:59:02.877Z,42.92
